Time;durP1;ratioP1;P1;durP2;ratioP2;P2;SDS_P1;SDS_P2;PMS_P1;PMS_P2;Temp;Humidity;BMP_temperature;BMP_pressure;BME280_temperature;BME280_humidity;BME280_pressure;Samples;Min_cycle;Max_cycle;Signal;HPM_P1;HPM_P2
2024/04/06 00:00:28;;;;;;;;;;;;;;;;;;1047975;28;20386;-78
2024/04/06 00:01:00;;;;;;;;;;;;;;;;;;1046417;28;20384;-78
2024/04/06 00:01:30;;;;;;;;;;;;;;;;;;1049317;28;19912;-78
2024/04/06 00:02:04;;;;;;;;;;;;;;;;;;1054816;28;19926;-76
2024/04/06 00:02:34;;;;;;;;;;;;;;;;;;1053802;28;19959;-75
2024/04/06 00:03:04;;;;;;;;;;;;;;;;;;1052928;28;19933;-76
2024/04/06 00:03:35;;;;;;;;;;;;;;;;;;1053043;28;19912;-75
2024/04/06 00:04:05;;;;;;;;;;;;;;;;;;1052974;28;20416;-75
2024/04/06 00:04:36;;;;;;;;;;;;;;;;;;1052494;28;20391;-75
2024/04/06 00:05:09;;;;;;;;;;;;;;;;;;1052314;28;20419;-75
2024/04/06 00:05:39;;;;;;;;;;;;;;;;;;1051340;28;20014;-75
2024/04/06 00:06:10;;;;;;;;;;;;;;;;;;1052084;28;20026;-75
2024/04/06 00:06:40;;;;;;;;;;;;;;;;;;1052072;28;19940;-75
2024/04/06 00:07:10;;;;;;;;;;;;;;;;;;1052572;28;20401;-76
2024/04/06 00:07:40;;;;;;;;;;;;;;;;;;1052241;28;20331;-75
2024/04/06 00:08:11;;;;;;;;;;;;;;;;;;1052442;28;20385;-75
2024/04/06 00:08:41;;;;;;;;;;;;;;;;;;1047997;28;20385;-75
2024/04/06 00:09:12;;;;;;;;;;;;;;;;;;1048013;28;19917;-75
2024/04/06 00:09:42;;;;;;;;;;;;;;;;;;1052305;28;20324;-75
2024/04/06 00:10:12;;;;;;;;;;;;;;;;;;1052445;28;19912;-76
2024/04/06 00:10:43;;;;;;;;;;;;;;;;;;1052287;28;19916;-77
2024/04/06 00:11:13;;;;;;;;;;;;;;;;;;1052645;28;20261;-77
2024/04/06 00:11:43;;;;;;;;;;;;;;;;;;1051317;28;19916;-78
2024/04/06 00:12:13;;;;;;;;;;;;;;;;;;1051745;28;19954;-78
2024/04/06 00:12:43;;;;;;;;;;;;;;;;;;1050381;28;19916;-77
2024/04/06 00:13:14;;;;;;;;;;;;;;;;;;1052434;28;19912;-77
2024/04/06 00:13:44;;;;;;;;;;;;;;;;;;1052477;28;19918;-78
2024/04/06 00:14:17;;;;;;;;;;;;;;;;;;1052910;28;19912;-78
2024/04/06 00:14:47;;;;;;;;;;;;;;;;;;1051836;28;20013;-78
2024/04/06 00:15:18;;;;;;;;;;;;;;;;;;1052363;28;20543;-77
2024/04/06 00:15:48;;;;;;;;;;;;;;;;;;1052623;28;20326;-77
2024/04/06 00:16:18;;;;;;;;;;;;;;;;;;1052429;28;20376;-77
2024/04/06 00:16:48;;;;;;;;;;;;;;;;;;1048053;28;19912;-77
2024/04/06 00:17:19;;;;;;;;;;;;;;;;;;1052399;28;19955;-77
2024/04/06 00:17:49;;;;;;;;;;;;;;;;;;1052642;28;19961;-77
2024/04/06 00:18:19;;;;;;;;;;;;;;;;;;1052942;28;19919;-78
2024/04/06 00:18:49;;;;;;;;;;;;;;;;;;1048074;28;19912;-78
2024/04/06 00:19:20;;;;;;;;;;;;;;;;;;1048300;28;19916;-78
2024/04/06 00:19:51;;;;;;;;;;;;;;;;;;1048430;28;19920;-78
2024/04/06 00:20:22;;;;;;;;;;;;;;;;;;1047314;28;19920;-78
2024/04/06 00:20:52;;;;;;;;;;;;;;;;;;1048534;28;20312;-78
2024/04/06 00:21:22;;;;;;;;;;;;;;;;;;1052456;28;19965;-78
2024/04/06 00:21:52;;;;;;;;;;;;;;;;;;1052456;28;20407;-78
2024/04/06 00:22:23;;;;;;;;;;;;;;;;;;1048225;28;20449;-78
2024/04/06 00:22:53;;;;;;;;;;;;;;;;;;1047979;28;19913;-78
2024/04/06 00:23:23;;;;;;;;;;;;;;;;;;1044772;28;19959;-78
2024/04/06 00:23:53;;;;;;;;;;;;;;;;;;1044206;28;20376;-78
2024/04/06 00:24:24;;;;;;;;;;;;;;;;;;1047622;28;19913;-78
2024/04/06 00:24:54;;;;;;;;;;;;;;;;;;1052217;28;19912;-78
2024/04/06 00:25:24;;;;;;;;;;;;;;;;;;1052649;28;19919;-78
2024/04/06 00:25:55;;;;;;;;;;;;;;;;;;1052803;28;19916;-78
2024/04/06 00:26:25;;;;;;;;;;;;;;;;;;1053183;28;19947;-78
2024/04/06 00:26:55;;;;;;;;;;;;;;;;;;1052595;28;19923;-78
2024/04/06 00:27:25;;;;;;;;;;;;;;;;;;1052745;28;19916;-78
2024/04/06 00:27:55;;;;;;;;;;;;;;;;;;1052777;28;19966;-78
2024/04/06 00:28:26;;;;;;;;;;;;;;;;;;1052469;28;19912;-78
2024/04/06 00:28:56;;;;;;;;;;;;;;;;;;1052677;28;19912;-78
2024/04/06 00:29:26;;;;;;;;;;;;;;;;;;1053559;28;19912;-78
2024/04/06 00:29:56;;;;;;;;;;;;;;;;;;1052780;28;19916;-78
2024/04/06 00:30:27;;;;;;;;;;;;;;;;;;1052752;28;20375;-78
2024/04/06 00:30:57;;;;;;;;;;;;;;;;;;1053017;28;19954;-78
2024/04/06 00:31:27;;;;;;;;;;;;;;;;;;1053084;28;19955;-78
2024/04/06 00:31:57;;;;;;;;;;;;;;;;;;1053411;28;19989;-78
2024/04/06 00:32:27;;;;;;;;;;;;;;;;;;1048930;28;20015;-78
2024/04/06 00:32:58;;;;;;;;;;;;;;;;;;1053931;28;19931;-78
2024/04/06 00:33:28;;;;;;;;;;;;;;;;;;1049739;28;19913;-78
2024/04/06 00:34:01;;;;;;;;;;;;;;;;;;1049351;28;19916;-78
2024/04/06 00:34:31;;;;;;;;;;;;;;;;;;1048961;28;19912;-78
2024/04/06 00:35:02;;;;;;;;;;;;;;;;;;1045281;28;19913;-77
2024/04/06 00:35:32;;;;;;;;;;;;;;;;;;1049026;28;19955;-79
2024/04/06 00:36:03;;;;;;;;;;;;;;;;;;1048061;28;19912;-78
2024/04/06 00:36:33;;;;;;;;;;;;;;;;;;1052062;28;19919;-78
2024/04/06 00:37:03;;;;;;;;;;;;;;;;;;1053675;28;20406;-78
2024/04/06 00:37:33;;;;;;;;;;;;;;;;;;1053772;28;19923;-78
2024/04/06 00:38:04;;;;;;;;;;;;;;;;;;1053812;28;19934;-78
2024/04/06 00:38:34;;;;;;;;;;;;;;;;;;1054804;28;20310;-78
2024/04/06 00:39:04;;;;;;;;;;;;;;;;;;1053926;28;20387;-78
2024/04/06 00:39:34;;;;;;;;;;;;;;;;;;1053270;28;19919;-77
2024/04/06 00:40:05;;;;;;;;;;;;;;;;;;1053613;28;20010;-77
2024/04/06 00:40:35;;;;;;;;;;;;;;;;;;1053235;28;20215;-78
2024/04/06 00:41:05;;;;;;;;;;;;;;;;;;1052196;28;21783;-78
2024/04/06 00:41:36;;;;;;;;;;;;;;;;;;1054361;28;20444;-78
2024/04/06 00:42:06;;;;;;;;;;;;;;;;;;1053489;28;19912;-78
2024/04/06 00:42:36;;;;;;;;;;;;;;;;;;1052959;28;19920;-78
2024/04/06 00:43:06;;;;;;;;;;;;;;;;;;1053297;28;19912;-78
2024/04/06 00:43:37;;;;;;;;;;;;;;;;;;1053102;28;19916;-78
2024/04/06 00:44:07;;;;;;;;;;;;;;;;;;1053668;28;19912;-77
2024/04/06 00:44:37;;;;;;;;;;;;;;;;;;1052998;28;19970;-77
2024/04/06 00:45:08;;;;;;;;;;;;;;;;;;1053245;28;20618;-77
2024/04/06 00:45:38;;;;;;;;;;;;;;;;;;1052966;28;19916;-77
2024/04/06 00:46:08;;;;;;;;;;;;;;;;;;1053374;28;19912;-77
2024/04/06 00:46:38;;;;;;;;;;;;;;;;;;1053225;28;19935;-77
2024/04/06 00:47:09;;;;;;;;;;;;;;;;;;1053403;28;20284;-78
2024/04/06 00:47:39;;;;;;;;;;;;;;;;;;1048943;28;20007;-78
2024/04/06 00:48:10;;;;;;;;;;;;;;;;;;1048285;28;19919;-77
2024/04/06 00:48:41;;;;;;;;;;;;;;;;;;1048707;28;20003;-77
2024/04/06 00:49:11;;;;;;;;;;;;;;;;;;1052276;28;19912;-77
2024/04/06 00:49:41;;;;;;;;;;;;;;;;;;1052668;28;19919;-77
2024/04/06 00:50:11;;;;;;;;;;;;;;;;;;1052699;28;19912;-77
2024/04/06 00:50:41;;;;;;;;;;;;;;;;;;1053437;28;19958;-78
2024/04/06 00:51:12;;;;;;;;;;;;;;;;;;1054925;28;19912;-78
2024/04/06 00:51:42;;;;;;;;;;;;;;;;;;1053377;28;19912;-78
2024/04/06 00:52:12;;;;;;;;;;;;;;;;;;1052978;28;19912;-78
2024/04/06 00:52:42;;;;;;;;;;;;;;;;;;1048802;28;19920;-78
2024/04/06 00:53:13;;;;;;;;;;;;;;;;;;1053162;28;19942;-78
2024/04/06 00:53:43;;;;;;;;;;;;;;;;;;1053332;28;19919;-78
2024/04/06 00:54:13;;;;;;;;;;;;;;;;;;1054923;28;20022;-78
2024/04/06 00:54:43;;;;;;;;;;;;;;;;;;1055145;28;19965;-78
2024/04/06 00:55:13;;;;;;;;;;;;;;;;;;1053271;28;19978;-78
2024/04/06 00:55:44;;;;;;;;;;;;;;;;;;1054888;28;19932;-78
2024/04/06 00:56:14;;;;;;;;;;;;;;;;;;1053262;28;19912;-78
2024/04/06 00:56:44;;;;;;;;;;;;;;;;;;1053071;28;19912;-78
2024/04/06 00:57:14;;;;;;;;;;;;;;;;;;1048816;28;19916;-77
2024/04/06 00:57:45;;;;;;;;;;;;;;;;;;1052862;28;19939;-77
2024/04/06 00:58:16;;;;;;;;;;;;;;;;;;1053009;28;19912;-78
2024/04/06 00:58:46;;;;;;;;;;;;;;;;;;1052873;28;19912;-78
2024/04/06 00:59:16;;;;;;;;;;;;;;;;;;1052932;28;19912;-77
2024/04/06 00:59:47;;;;;;;;;;;;;;;;;;1048773;28;19912;-77
2024/04/06 01:00:17;;;;;;;;;;;;;;;;;;1048617;28;20395;-78
2024/04/06 01:00:47;;;;;;;;;;;;;;;;;;1049065;28;19913;-78
2024/04/06 01:01:18;;;;;;;;;;;;;;;;;;1049217;28;19973;-78
2024/04/06 01:01:48;;;;;;;;;;;;;;;;;;1054099;28;19959;-78
2024/04/06 01:02:18;;;;;;;;;;;;;;;;;;1053276;28;19920;-78
2024/04/06 01:02:49;;;;;;;;;;;;;;;;;;1053005;28;20302;-78
2024/04/06 01:03:19;;;;;;;;;;;;;;;;;;1048579;28;20366;-78
2024/04/06 01:03:49;;;;;;;;;;;;;;;;;;1053160;28;20373;-78
2024/04/06 01:04:20;;;;;;;;;;;;;;;;;;1053175;28;20030;-78
2024/04/06 01:04:50;;;;;;;;;;;;;;;;;;1048654;28;19913;-78
2024/04/06 01:05:20;;;;;;;;;;;;;;;;;;1052770;28;20399;-78
2024/04/06 01:05:51;;;;;;;;;;;;;;;;;;1052342;28;19912;-77
2024/04/06 01:06:21;;;;;;;;;;;;;;;;;;1052537;28;19912;-78
2024/04/06 01:06:51;;;;;;;;;;;;;;;;;;1054102;28;19912;-78
2024/04/06 01:07:21;;;;;;;;;;;;;;;;;;1053044;28;19912;-78
2024/04/06 01:07:51;;;;;;;;;;;;;;;;;;1048916;28;19920;-78
2024/04/06 01:08:22;;;;;;;;;;;;;;;;;;1048706;28;19912;-78
2024/04/06 01:08:52;;;;;;;;;;;;;;;;;;1048728;28;19961;-78
2024/04/06 01:09:22;;;;;;;;;;;;;;;;;;1044486;28;19913;-77
2024/04/06 01:09:52;;;;;;;;;;;;;;;;;;1047581;28;19917;-78
2024/04/06 01:10:23;;;;;;;;;;;;;;;;;;1048141;28;19912;-78
2024/04/06 01:10:53;;;;;;;;;;;;;;;;;;1047476;28;19923;-78
2024/04/06 01:11:23;;;;;;;;;;;;;;;;;;1048696;28;19913;-78
2024/04/06 01:11:54;;;;;;;;;;;;;;;;;;1053256;28;19918;-78
2024/04/06 01:12:24;;;;;;;;;;;;;;;;;;1049709;28;19912;-77
2024/04/06 01:12:54;;;;;;;;;;;;;;;;;;1049969;28;19921;-78
2024/04/06 01:13:25;;;;;;;;;;;;;;;;;;1048500;28;20071;-77
2024/04/06 01:13:55;;;;;;;;;;;;;;;;;;1048476;28;19917;-77
2024/04/06 01:14:25;;;;;;;;;;;;;;;;;;1047238;28;20387;-77
2024/04/06 01:14:55;;;;;;;;;;;;;;;;;;1047624;28;19916;-78
2024/04/06 01:15:26;;;;;;;;;;;;;;;;;;1048499;28;19921;-78
2024/04/06 01:15:56;;;;;;;;;;;;;;;;;;1048167;28;19964;-77
2024/04/06 01:16:26;;;;;;;;;;;;;;;;;;1048175;28;20472;-77
2024/04/06 01:16:57;;;;;;;;;;;;;;;;;;1047785;28;20303;-77
2024/04/06 01:17:27;;;;;;;;;;;;;;;;;;1052589;28;20387;-77
2024/04/06 01:17:57;;;;;;;;;;;;;;;;;;1052109;28;19920;-77
2024/04/06 01:18:27;;;;;;;;;;;;;;;;;;1051323;28;19955;-76
2024/04/06 01:18:58;;;;;;;;;;;;;;;;;;1051498;28;19912;-77
2024/04/06 01:19:28;;;;;;;;;;;;;;;;;;1052430;28;19913;-77
2024/04/06 01:19:58;;;;;;;;;;;;;;;;;;1048344;28;19923;-77
2024/04/06 01:20:28;;;;;;;;;;;;;;;;;;1052872;28;19912;-78
2024/04/06 01:21:00;;;;;;;;;;;;;;;;;;1052084;28;19920;-77
2024/04/06 01:21:31;;;;;;;;;;;;;;;;;;1052406;28;20007;-77
2024/04/06 01:22:01;;;;;;;;;;;;;;;;;;1053108;28;19924;-79
2024/04/06 01:22:31;;;;;;;;;;;;;;;;;;1052403;28;19919;-79
2024/04/06 01:23:01;;;;;;;;;;;;;;;;;;1048574;28;19920;-79
2024/04/06 01:23:32;;;;;;;;;;;;;;;;;;1049593;28;19912;-78
2024/04/06 01:24:02;;;;;;;;;;;;;;;;;;1047946;28;19952;-77
2024/04/06 01:24:33;;;;;;;;;;;;;;;;;;1052495;28;19916;-77
2024/04/06 01:25:04;;;;;;;;;;;;;;;;;;1051942;28;19912;-77
2024/04/06 01:25:34;;;;;;;;;;;;;;;;;;1050415;28;19919;-78
2024/04/06 01:26:05;;;;;;;;;;;;;;;;;;1050873;28;19963;-78
2024/04/06 01:26:36;;;;;;;;;;;;;;;;;;1051191;28;19919;-78
2024/04/06 01:27:07;;;;;;;;;;;;;;;;;;1046400;28;19956;-78
2024/04/06 01:27:37;;;;;;;;;;;;;;;;;;1047234;28;20388;-78
2024/04/06 01:28:07;;;;;;;;;;;;;;;;;;1048548;28;19917;-78
2024/04/06 01:28:38;;;;;;;;;;;;;;;;;;1048185;28;20229;-78
2024/04/06 01:29:08;;;;;;;;;;;;;;;;;;1051031;28;20403;-78
2024/04/06 01:29:38;;;;;;;;;;;;;;;;;;1052665;28;20417;-78
2024/04/06 01:30:08;;;;;;;;;;;;;;;;;;1053205;28;20388;-78
2024/04/06 01:30:39;;;;;;;;;;;;;;;;;;1052478;28;19943;-78
2024/04/06 01:31:09;;;;;;;;;;;;;;;;;;1052568;28;19922;-78
2024/04/06 01:31:39;;;;;;;;;;;;;;;;;;1052419;28;19946;-78
2024/04/06 01:32:10;;;;;;;;;;;;;;;;;;1051127;28;19964;-77
2024/04/06 01:32:40;;;;;;;;;;;;;;;;;;1049660;28;20008;-78
2024/04/06 01:33:10;;;;;;;;;;;;;;;;;;1049675;28;19943;-77
2024/04/06 01:33:40;;;;;;;;;;;;;;;;;;1053031;28;19912;-78
2024/04/06 01:34:11;;;;;;;;;;;;;;;;;;1052982;28;19951;-78
2024/04/06 01:34:41;;;;;;;;;;;;;;;;;;1052088;28;19933;-78
2024/04/06 01:35:11;;;;;;;;;;;;;;;;;;1053884;28;19916;-78
2024/04/06 01:35:41;;;;;;;;;;;;;;;;;;1053350;28;19950;-78
2024/04/06 01:36:11;;;;;;;;;;;;;;;;;;1052612;28;20007;-78
2024/04/06 01:36:42;;;;;;;;;;;;;;;;;;1053596;28;19971;-78
2024/04/06 01:37:12;;;;;;;;;;;;;;;;;;1052731;28;20049;-78
2024/04/06 01:37:44;;;;;;;;;;;;;;;;;;1048196;28;19913;-77
2024/04/06 01:38:14;;;;;;;;;;;;;;;;;;1047690;28;19938;-77
2024/04/06 01:38:45;;;;;;;;;;;;;;;;;;1048631;28;19916;-77
2024/04/06 01:39:15;;;;;;;;;;;;;;;;;;1052834;28;19912;-77
2024/04/06 01:39:45;;;;;;;;;;;;;;;;;;1052629;28;20010;-77
2024/04/06 01:40:16;;;;;;;;;;;;;;;;;;1048406;28;21264;-77
2024/04/06 01:40:46;;;;;;;;;;;;;;;;;;1048360;28;20191;-78
2024/04/06 01:41:16;;;;;;;;;;;;;;;;;;1048129;28;19919;-77
2024/04/06 01:41:46;;;;;;;;;;;;;;;;;;1048377;28;19912;-78
2024/04/06 01:42:16;;;;;;;;;;;;;;;;;;1051897;28;19927;-78
2024/04/06 01:42:47;;;;;;;;;;;;;;;;;;1047978;28;19941;-78
2024/04/06 01:43:17;;;;;;;;;;;;;;;;;;1048089;28;19912;-77
2024/04/06 01:43:48;;;;;;;;;;;;;;;;;;1048525;28;19970;-77
2024/04/06 01:44:18;;;;;;;;;;;;;;;;;;1048808;28;19919;-78
2024/04/06 01:44:48;;;;;;;;;;;;;;;;;;1052623;28;19912;-78
2024/04/06 01:45:19;;;;;;;;;;;;;;;;;;1051159;28;19912;-78
2024/04/06 01:45:49;;;;;;;;;;;;;;;;;;1048212;28;19962;-77
2024/04/06 01:46:19;;;;;;;;;;;;;;;;;;1052806;28;19912;-77
2024/04/06 01:46:49;;;;;;;;;;;;;;;;;;1052750;28;19920;-77
2024/04/06 01:47:20;;;;;;;;;;;;;;;;;;1052555;28;19916;-77
2024/04/06 01:47:50;;;;;;;;;;;;;;;;;;1052767;28;19919;-78
2024/04/06 01:48:20;;;;;;;;;;;;;;;;;;1052886;28;19938;-78
2024/04/06 01:48:50;;;;;;;;;;;;;;;;;;1052322;28;19912;-78
2024/04/06 01:49:20;;;;;;;;;;;;;;;;;;1052364;28;19919;-78
2024/04/06 01:49:51;;;;;;;;;;;;;;;;;;1052890;28;19912;-78
2024/04/06 01:50:21;;;;;;;;;;;;;;;;;;1052761;28;19919;-78
2024/04/06 01:50:51;;;;;;;;;;;;;;;;;;1052077;28;19943;-78
2024/04/06 01:51:21;;;;;;;;;;;;;;;;;;1050405;28;20358;-78
2024/04/06 01:51:52;;;;;;;;;;;;;;;;;;1047310;28;19955;-78
2024/04/06 01:52:22;;;;;;;;;;;;;;;;;;1044530;28;21117;-78
2024/04/06 01:52:52;;;;;;;;;;;;;;;;;;1044173;28;19912;-78
2024/04/06 01:53:23;;;;;;;;;;;;;;;;;;1044266;28;19943;-78
2024/04/06 01:53:53;;;;;;;;;;;;;;;;;;1048584;28;19913;-78
2024/04/06 01:54:23;;;;;;;;;;;;;;;;;;1052740;28;19916;-78
2024/04/06 01:54:53;;;;;;;;;;;;;;;;;;1052258;28;20136;-78
2024/04/06 01:55:24;;;;;;;;;;;;;;;;;;1052427;28;19912;-77
2024/04/06 01:55:54;;;;;;;;;;;;;;;;;;1048390;28;19919;-77
2024/04/06 01:56:26;;;;;;;;;;;;;;;;;;1048509;28;20474;-77
2024/04/06 01:56:56;;;;;;;;;;;;;;;;;;1048642;28;19912;-78
2024/04/06 01:57:26;;;;;;;;;;;;;;;;;;1050346;28;20280;-76
2024/04/06 01:57:57;;;;;;;;;;;;;;;;;;1053343;28;19923;-77
2024/04/06 01:58:27;;;;;;;;;;;;;;;;;;1052919;28;19912;-77
2024/04/06 01:58:57;;;;;;;;;;;;;;;;;;1052809;28;19923;-77
2024/04/06 01:59:29;;;;;;;;;;;;;;;;;;1052562;28;19912;-77
2024/04/06 01:59:59;;;;;;;;;;;;;;;;;;1051395;28;20358;-77
2024/04/06 02:00:29;;;;;;;;;;;;;;;;;;1048304;28;19912;-77
2024/04/06 02:01:00;;;;;;;;;;;;;;;;;;1048455;28;19916;-77
2024/04/06 02:01:30;;;;;;;;;;;;;;;;;;1052413;28;19919;-77
2024/04/06 02:02:00;;;;;;;;;;;;;;;;;;1052622;28;20364;-77
2024/04/06 02:02:30;;;;;;;;;;;;;;;;;;1052600;28;19919;-77
2024/04/06 02:03:01;;;;;;;;;;;;;;;;;;1052920;28;19912;-77
2024/04/06 02:03:31;;;;;;;;;;;;;;;;;;1052693;28;19912;-77
2024/04/06 02:04:01;;;;;;;;;;;;;;;;;;1052724;28;19957;-78
2024/04/06 02:04:31;;;;;;;;;;;;;;;;;;1052397;28;20388;-78
2024/04/06 02:05:02;;;;;;;;;;;;;;;;;;1052463;28;19916;-77
2024/04/06 02:05:32;;;;;;;;;;;;;;;;;;1049221;28;19947;-77
2024/04/06 02:06:02;;;;;;;;;;;;;;;;;;1046681;28;20479;-77
2024/04/06 02:06:32;;;;;;;;;;;;;;;;;;1048259;28;19912;-77
2024/04/06 02:07:04;;;;;;;;;;;;;;;;;;1048219;28;19928;-77
2024/04/06 02:07:34;;;;;;;;;;;;;;;;;;1048508;28;19912;-78
2024/04/06 02:08:05;;;;;;;;;;;;;;;;;;1052559;28;19912;-78
2024/04/06 02:08:35;;;;;;;;;;;;;;;;;;1048378;28;19946;-77
2024/04/06 02:09:05;;;;;;;;;;;;;;;;;;1048316;28;20455;-78
2024/04/06 02:09:35;;;;;;;;;;;;;;;;;;1044455;28;19963;-77
2024/04/06 02:10:06;;;;;;;;;;;;;;;;;;1044114;28;20055;-77
2024/04/06 02:10:36;;;;;;;;;;;;;;;;;;1048384;28;20412;-78
2024/04/06 02:11:06;;;;;;;;;;;;;;;;;;1053008;28;19912;-78
2024/04/06 02:11:36;;;;;;;;;;;;;;;;;;1052748;28;19912;-77
2024/04/06 02:12:07;;;;;;;;;;;;;;;;;;1052653;28;20365;-77
2024/04/06 02:12:37;;;;;;;;;;;;;;;;;;1052668;28;19912;-78
2024/04/06 02:13:07;;;;;;;;;;;;;;;;;;1052594;28;20009;-77
2024/04/06 02:13:37;;;;;;;;;;;;;;;;;;1052453;28;19916;-77
2024/04/06 02:14:08;;;;;;;;;;;;;;;;;;1052718;28;19959;-78
2024/04/06 02:14:38;;;;;;;;;;;;;;;;;;1052493;28;20281;-78
2024/04/06 02:15:08;;;;;;;;;;;;;;;;;;1053373;28;20310;-80
2024/04/06 02:15:39;;;;;;;;;;;;;;;;;;1052607;28;20304;-78
2024/04/06 02:16:09;;;;;;;;;;;;;;;;;;1052696;28;19923;-77
2024/04/06 02:16:39;;;;;;;;;;;;;;;;;;1052464;28;19942;-78
2024/04/06 02:17:10;;;;;;;;;;;;;;;;;;1052782;28;20389;-78
2024/04/06 02:17:40;;;;;;;;;;;;;;;;;;1052498;28;20312;-77
2024/04/06 02:18:10;;;;;;;;;;;;;;;;;;1052676;28;20008;-77
2024/04/06 02:18:42;;;;;;;;;;;;;;;;;;1052731;28;19998;-78
2024/04/06 02:19:13;;;;;;;;;;;;;;;;;;1049833;28;19986;-77
2024/04/06 02:19:43;;;;;;;;;;;;;;;;;;1046044;28;19916;-77
2024/04/06 02:20:13;;;;;;;;;;;;;;;;;;1048972;28;20027;-78
2024/04/06 02:20:43;;;;;;;;;;;;;;;;;;1045474;28;19999;-77
2024/04/06 02:21:14;;;;;;;;;;;;;;;;;;1050182;28;19978;-77
2024/04/06 02:21:44;;;;;;;;;;;;;;;;;;1053303;28;20432;-77
2024/04/06 02:22:14;;;;;;;;;;;;;;;;;;1052409;28;19916;-77
2024/04/06 02:22:44;;;;;;;;;;;;;;;;;;1051639;28;19927;-77
2024/04/06 02:23:15;;;;;;;;;;;;;;;;;;1052885;28;20364;-77
2024/04/06 02:23:45;;;;;;;;;;;;;;;;;;1052632;28;20028;-77
2024/04/06 02:24:17;;;;;;;;;;;;;;;;;;1052295;28;19916;-77
2024/04/06 02:24:47;;;;;;;;;;;;;;;;;;1051003;28;20374;-79
2024/04/06 02:25:17;;;;;;;;;;;;;;;;;;1046340;28;19927;-76
2024/04/06 02:25:47;;;;;;;;;;;;;;;;;;1048356;28;19912;-78
2024/04/06 02:26:18;;;;;;;;;;;;;;;;;;1048103;28;19944;-77
2024/04/06 02:26:48;;;;;;;;;;;;;;;;;;1048090;28;19954;-76
2024/04/06 02:27:18;;;;;;;;;;;;;;;;;;1052221;28;20311;-77
2024/04/06 02:27:49;;;;;;;;;;;;;;;;;;1052671;28;19939;-77
2024/04/06 02:28:19;;;;;;;;;;;;;;;;;;1053011;28;19970;-80
2024/04/06 02:28:49;;;;;;;;;;;;;;;;;;1052536;28;19963;-79
2024/04/06 02:29:19;;;;;;;;;;;;;;;;;;1047986;28;20292;-77
2024/04/06 02:29:50;;;;;;;;;;;;;;;;;;1048150;28;19913;-77
2024/04/06 02:30:21;;;;;;;;;;;;;;;;;;1052028;28;19920;-76
2024/04/06 02:30:53;;;;;;;;;;;;;;;;;;1052204;28;19923;-78
2024/04/06 02:31:23;;;;;;;;;;;;;;;;;;1053022;28;20367;-77
2024/04/06 02:31:53;;;;;;;;;;;;;;;;;;1052780;28;19919;-78
2024/04/06 02:32:24;;;;;;;;;;;;;;;;;;1052599;28;19912;-78
2024/04/06 02:32:54;;;;;;;;;;;;;;;;;;1047985;28;19913;-77
2024/04/06 02:33:24;;;;;;;;;;;;;;;;;;1048533;28;20415;-78
2024/04/06 02:33:54;;;;;;;;;;;;;;;;;;1052720;28;20353;-78
2024/04/06 02:34:25;;;;;;;;;;;;;;;;;;1052587;28;20346;-77
2024/04/06 02:34:56;;;;;;;;;;;;;;;;;;1052565;28;19912;-78
2024/04/06 02:35:26;;;;;;;;;;;;;;;;;;1053229;28;19919;-78
2024/04/06 02:35:56;;;;;;;;;;;;;;;;;;1051688;28;19916;-79
2024/04/06 02:36:27;;;;;;;;;;;;;;;;;;1053222;28;20466;-79
2024/04/06 02:36:57;;;;;;;;;;;;;;;;;;1051363;28;20328;-78
2024/04/06 02:37:27;;;;;;;;;;;;;;;;;;1052808;28;19998;-80
2024/04/06 02:37:57;;;;;;;;;;;;;;;;;;1053097;28;20006;-79
2024/04/06 02:38:28;;;;;;;;;;;;;;;;;;1051480;28;20411;-79
2024/04/06 02:38:58;;;;;;;;;;;;;;;;;;1048319;28;20396;-78
2024/04/06 02:39:28;;;;;;;;;;;;;;;;;;1048232;28;19919;-76
2024/04/06 02:39:58;;;;;;;;;;;;;;;;;;1047732;28;19916;-79
2024/04/06 02:40:29;;;;;;;;;;;;;;;;;;1052818;28;19916;-79
2024/04/06 02:40:59;;;;;;;;;;;;;;;;;;1048396;28;19912;-79
2024/04/06 02:41:29;;;;;;;;;;;;;;;;;;1046609;28;20014;-77
2024/04/06 02:42:00;;;;;;;;;;;;;;;;;;1047386;28;20007;-77
2024/04/06 02:42:30;;;;;;;;;;;;;;;;;;1047856;28;19912;-77
2024/04/06 02:43:00;;;;;;;;;;;;;;;;;;1052256;28;19918;-77
2024/04/06 02:43:30;;;;;;;;;;;;;;;;;;1052369;28;19916;-78
2024/04/06 02:44:00;;;;;;;;;;;;;;;;;;1052778;28;19916;-78
2024/04/06 02:44:31;;;;;;;;;;;;;;;;;;1052570;28;19912;-77
2024/04/06 02:45:01;;;;;;;;;;;;;;;;;;1052253;28;19912;-76
2024/04/06 02:45:31;;;;;;;;;;;;;;;;;;1049069;28;19935;-77
2024/04/06 02:46:02;;;;;;;;;;;;;;;;;;1050329;28;19993;-75
2024/04/06 02:46:32;;;;;;;;;;;;;;;;;;1050397;28;19999;-77
2024/04/06 02:47:03;;;;;;;;;;;;;;;;;;1048206;28;19932;-78
2024/04/06 02:47:34;;;;;;;;;;;;;;;;;;1048213;28;20438;-77
2024/04/06 02:48:04;;;;;;;;;;;;;;;;;;1048268;28;20001;-77
2024/04/06 02:48:34;;;;;;;;;;;;;;;;;;1048398;28;19913;-77
2024/04/06 02:49:04;;;;;;;;;;;;;;;;;;1047478;28;19912;-76
2024/04/06 02:49:35;;;;;;;;;;;;;;;;;;1048144;28;19917;-76
2024/04/06 02:50:05;;;;;;;;;;;;;;;;;;1049314;28;19912;-77
2024/04/06 02:50:35;;;;;;;;;;;;;;;;;;1047222;28;19927;-76
2024/04/06 02:51:05;;;;;;;;;;;;;;;;;;1043675;28;20022;-77
2024/04/06 02:51:36;;;;;;;;;;;;;;;;;;1046277;28;20525;-77
2024/04/06 02:52:06;;;;;;;;;;;;;;;;;;1042742;28;19976;-77
2024/04/06 02:52:36;;;;;;;;;;;;;;;;;;1045743;28;19991;-77
2024/04/06 02:53:07;;;;;;;;;;;;;;;;;;1048026;28;20058;-78
2024/04/06 02:53:37;;;;;;;;;;;;;;;;;;1044848;28;19928;-78
2024/04/06 02:54:08;;;;;;;;;;;;;;;;;;1047089;28;19956;-78
2024/04/06 02:54:39;;;;;;;;;;;;;;;;;;1050263;28;19998;-77
2024/04/06 02:55:09;;;;;;;;;;;;;;;;;;1049606;28;19916;-77
2024/04/06 02:55:40;;;;;;;;;;;;;;;;;;1048401;28;19999;-77
2024/04/06 02:56:10;;;;;;;;;;;;;;;;;;1050042;28;19916;-79
2024/04/06 02:56:40;;;;;;;;;;;;;;;;;;1050365;28;19912;-79
2024/04/06 02:57:10;;;;;;;;;;;;;;;;;;1047952;28;19967;-78
2024/04/06 02:57:41;;;;;;;;;;;;;;;;;;1048847;28;19912;-79
2024/04/06 02:58:11;;;;;;;;;;;;;;;;;;1048258;28;19912;-79
2024/04/06 02:58:42;;;;;;;;;;;;;;;;;;1043453;28;19913;-78
2024/04/06 02:59:12;;;;;;;;;;;;;;;;;;1043812;28;19912;-76
2024/04/06 02:59:42;;;;;;;;;;;;;;;;;;1049658;28;19912;-79
2024/04/06 03:00:13;;;;;;;;;;;;;;;;;;1048414;28;19967;-78
2024/04/06 03:00:43;;;;;;;;;;;;;;;;;;1048777;28;20371;-78
2024/04/06 03:01:13;;;;;;;;;;;;;;;;;;1048313;28;20311;-78
2024/04/06 03:01:43;;;;;;;;;;;;;;;;;;1048795;28;20311;-78
2024/04/06 03:02:13;;;;;;;;;;;;;;;;;;1049864;28;20012;-78
2024/04/06 03:02:44;;;;;;;;;;;;;;;;;;1051104;28;19916;-78
2024/04/06 03:03:15;;;;;;;;;;;;;;;;;;1052386;28;19918;-78
2024/04/06 03:03:45;;;;;;;;;;;;;;;;;;1052625;28;19912;-77
2024/04/06 03:04:15;;;;;;;;;;;;;;;;;;1051256;28;20062;-79
2024/04/06 03:04:45;;;;;;;;;;;;;;;;;;1052611;28;19916;-78
2024/04/06 03:05:18;;;;;;;;;;;;;;;;;;1050718;28;19914;-78
2024/04/06 03:05:48;;;;;;;;;;;;;;;;;;1051430;28;19912;-78
2024/04/06 03:06:18;;;;;;;;;;;;;;;;;;1051118;28;19916;-77
2024/04/06 03:06:49;;;;;;;;;;;;;;;;;;1048279;28;19968;-78
2024/04/06 03:07:19;;;;;;;;;;;;;;;;;;1048065;28;19912;-77
2024/04/06 03:07:49;;;;;;;;;;;;;;;;;;1050678;28;19939;-77
2024/04/06 03:08:19;;;;;;;;;;;;;;;;;;1051507;28;19915;-77
2024/04/06 03:08:50;;;;;;;;;;;;;;;;;;1051820;28;19916;-77
2024/04/06 03:09:20;;;;;;;;;;;;;;;;;;1051118;28;20020;-77
2024/04/06 03:09:50;;;;;;;;;;;;;;;;;;1051375;28;19912;-78
2024/04/06 03:10:20;;;;;;;;;;;;;;;;;;1051079;28;19912;-78
2024/04/06 03:10:51;;;;;;;;;;;;;;;;;;1051081;28;19923;-78
2024/04/06 03:11:21;;;;;;;;;;;;;;;;;;1052033;28;19916;-77
2024/04/06 03:11:51;;;;;;;;;;;;;;;;;;1050792;28;19912;-77
2024/04/06 03:12:21;;;;;;;;;;;;;;;;;;1051646;28;19962;-77
2024/04/06 03:12:51;;;;;;;;;;;;;;;;;;1052437;28;19919;-78
2024/04/06 03:13:22;;;;;;;;;;;;;;;;;;1051563;28;20423;-77
2024/04/06 03:13:53;;;;;;;;;;;;;;;;;;1052555;28;20296;-79
2024/04/06 03:14:24;;;;;;;;;;;;;;;;;;1046329;28;19967;-79
2024/04/06 03:14:54;;;;;;;;;;;;;;;;;;1046622;28;19951;-78
2024/04/06 03:15:25;;;;;;;;;;;;;;;;;;1051928;28;20053;-78
2024/04/06 03:15:56;;;;;;;;;;;;;;;;;;1051263;28;19938;-78
2024/04/06 03:16:26;;;;;;;;;;;;;;;;;;1052099;28;19919;-78
2024/04/06 03:16:57;;;;;;;;;;;;;;;;;;1051342;28;20410;-79
2024/04/06 03:17:27;;;;;;;;;;;;;;;;;;1051370;28;19912;-78
2024/04/06 03:17:57;;;;;;;;;;;;;;;;;;1051339;28;20362;-78
2024/04/06 03:18:28;;;;;;;;;;;;;;;;;;1048613;28;19913;-78
2024/04/06 03:18:58;;;;;;;;;;;;;;;;;;1045678;28;19921;-78
2024/04/06 03:19:28;;;;;;;;;;;;;;;;;;1046229;28;19917;-79
2024/04/06 03:19:58;;;;;;;;;;;;;;;;;;1047620;28;19920;-78
2024/04/06 03:20:29;;;;;;;;;;;;;;;;;;1051858;28;19912;-78
2024/04/06 03:20:59;;;;;;;;;;;;;;;;;;1051265;28;19926;-77
2024/04/06 03:21:30;;;;;;;;;;;;;;;;;;1051689;28;20007;-79
2024/04/06 03:22:00;;;;;;;;;;;;;;;;;;1051917;28;20006;-78
2024/04/06 03:22:30;;;;;;;;;;;;;;;;;;1051753;28;20045;-78
2024/04/06 03:23:01;;;;;;;;;;;;;;;;;;1051183;28;19916;-78
2024/04/06 03:23:31;;;;;;;;;;;;;;;;;;1049237;28;19915;-79
2024/04/06 03:24:01;;;;;;;;;;;;;;;;;;1049908;28;20408;-78
2024/04/06 03:24:31;;;;;;;;;;;;;;;;;;1049128;28;19919;-80
2024/04/06 03:25:02;;;;;;;;;;;;;;;;;;1050471;28;19998;-78
2024/04/06 03:25:32;;;;;;;;;;;;;;;;;;1050567;28;19915;-77
2024/04/06 03:26:02;;;;;;;;;;;;;;;;;;1051366;28;19916;-77
2024/04/06 03:26:32;;;;;;;;;;;;;;;;;;1050008;28;19965;-77
2024/04/06 03:27:03;;;;;;;;;;;;;;;;;;1051015;28;20364;-77
2024/04/06 03:27:33;;;;;;;;;;;;;;;;;;1050870;28;19912;-77